KLDM Airport (Mason County) Information

FAA: LDM - ICAO: KLDM

KLDM Airport Location

State Michigan
County Mason
City Ludington
KLDM Airport is 2 miles northeast of Ludington, MI.
Latitude 43-57-45.1000N
Longitude 086-24-28.5000W
Elevation 646ft

KLDM Airport METARs

METAR KLDM 161935Z AUTO 21012KT 10SM CLR 23/13 A3008 RMK AO2 T02280132
Altimeter 30.08"
Temperature 22.8°C (73.0°F)
Wind 210° at 12KT
Clouds Skies are clear.
Visibility 10.0mi
Time observed: 2021-09-16T19:35:00Z

KLDM Airport Details

Status Operational
Activation April 1940
Ownership Public
Usage Public
Chart CHICAGO
ATC on-site No
Beacon schedule sunset-sunrise
Beacon color clear green

KLDM Airport Contacts

Owner COUNTY OF MASON
Owner address COURT HOUSE, LUDINGTON, MI 49431
Owner phone 231-843-8202
Manager WADE HABERKAMP
Manager address 6044 LAKEVIEW PARK DR, LINDEN, MI 48451-9097
Manager phone 810-735-6346

KLDM Airport (Mason County) Radio Frequencies

KLDM (Airport) Radio Frequencies

UNICOM 123
Common traffic advisory frequency (CTAF) 123